sensor_id;sensor_type;location;lat;lon;timestamp;temperature;humidity
57390;DHT22;43217;52.694;6.214;2022-12-08T00:00:36;2.10;99.90
57390;DHT22;43217;52.694;6.214;2022-12-08T00:03:02;2.00;99.90
57390;DHT22;43217;52.694;6.214;2022-12-08T00:05:27;1.90;99.90
57390;DHT22;43217;52.694;6.214;2022-12-08T00:08:11;2.00;99.90
57390;DHT22;43217;52.694;6.214;2022-12-08T00:10:56;2.00;99.90
57390;DHT22;43217;52.694;6.214;2022-12-08T00:13:22;1.90;99.90
57390;DHT22;43217;52.694;6.214;2022-12-08T00:15:47;1.90;99.90
57390;DHT22;43217;52.694;6.214;2022-12-08T00:18:14;2.00;99.90
57390;DHT22;43217;52.694;6.214;2022-12-08T00:20:40;2.00;99.90
57390;DHT22;43217;52.694;6.214;2022-12-08T00:23:05;2.00;99.90
57390;DHT22;43217;52.694;6.214;2022-12-08T00:25:34;2.00;99.90
57390;DHT22;43217;52.694;6.214;2022-12-08T00:28:00;2.00;99.90
57390;DHT22;43217;52.694;6.214;2022-12-08T00:30:25;2.10;99.90
57390;DHT22;43217;52.694;6.214;2022-12-08T00:32:51;2.10;99.90
57390;DHT22;43217;52.694;6.214;2022-12-08T00:35:16;2.00;99.90
57390;DHT22;43217;52.694;6.214;2022-12-08T00:37:42;2.00;99.90
57390;DHT22;43217;52.694;6.214;2022-12-08T00:40:08;2.00;99.90
57390;DHT22;43217;52.694;6.214;2022-12-08T00:42:33;2.00;99.90
57390;DHT22;43217;52.694;6.214;2022-12-08T00:44:59;1.90;99.90
57390;DHT22;43217;52.694;6.214;2022-12-08T00:47:25;2.00;99.90
57390;DHT22;43217;52.694;6.214;2022-12-08T00:49:50;2.00;99.90
57390;DHT22;43217;52.694;6.214;2022-12-08T00:52:16;2.00;99.90
57390;DHT22;43217;52.694;6.214;2022-12-08T00:54:41;2.10;99.90
57390;DHT22;43217;52.694;6.214;2022-12-08T00:57:07;2.10;99.90
57390;DHT22;43217;52.694;6.214;2022-12-08T00:59:33;2.20;99.90
57390;DHT22;43217;52.694;6.214;2022-12-08T01:01:58;2.20;99.90
57390;DHT22;43217;52.694;6.214;2022-12-08T01:04:24;2.30;99.90
57390;DHT22;43217;52.694;6.214;2022-12-08T01:06:50;2.40;99.90
57390;DHT22;43217;52.694;6.214;2022-12-08T01:09:16;2.40;99.90
57390;DHT22;43217;52.694;6.214;2022-12-08T01:11:43;2.50;99.90
57390;DHT22;43217;52.694;6.214;2022-12-08T01:14:08;2.60;99.90
57390;DHT22;43217;52.694;6.214;2022-12-08T01:16:35;2.60;99.90
57390;DHT22;43217;52.694;6.214;2022-12-08T01:19:01;2.60;99.90
57390;DHT22;43217;52.694;6.214;2022-12-08T01:21:27;2.70;99.90
57390;DHT22;43217;52.694;6.214;2022-12-08T01:23:54;2.70;99.90
57390;DHT22;43217;52.694;6.214;2022-12-08T01:26:20;2.70;99.90
57390;DHT22;43217;52.694;6.214;2022-12-08T01:28:46;2.80;99.90
57390;DHT22;43217;52.694;6.214;2022-12-08T01:31:16;2.80;99.90
57390;DHT22;43217;52.694;6.214;2022-12-08T01:33:43;2.90;99.90
57390;DHT22;43217;52.694;6.214;2022-12-08T01:36:24;3.00;99.90
57390;DHT22;43217;52.694;6.214;2022-12-08T01:38:50;3.00;99.90
57390;DHT22;43217;52.694;6.214;2022-12-08T01:41:18;3.10;99.90
57390;DHT22;43217;52.694;6.214;2022-12-08T01:46:20;3.10;99.90
57390;DHT22;43217;52.694;6.214;2022-12-08T01:48:46;3.10;99.90
57390;DHT22;43217;52.694;6.214;2022-12-08T01:51:12;3.20;99.90
57390;DHT22;43217;52.694;6.214;2022-12-08T01:53:38;3.20;99.90
57390;DHT22;43217;52.694;6.214;2022-12-08T01:56:08;3.20;99.90
57390;DHT22;43217;52.694;6.214;2022-12-08T01:58:38;3.20;99.90
57390;DHT22;43217;52.694;6.214;2022-12-08T02:01:06;3.20;99.90
57390;DHT22;43217;52.694;6.214;2022-12-08T02:03:59;3.20;99.90
57390;DHT22;43217;52.694;6.214;2022-12-08T02:06:27;3.20;99.90
57390;DHT22;43217;52.694;6.214;2022-12-08T02:08:54;3.20;99.90
57390;DHT22;43217;52.694;6.214;2022-12-08T02:11:20;3.20;99.90
57390;DHT22;43217;52.694;6.214;2022-12-08T02:13:46;3.10;99.90
57390;DHT22;43217;52.694;6.214;2022-12-08T02:22:22;3.20;99.90
57390;DHT22;43217;52.694;6.214;2022-12-08T02:24:50;3.20;99.90
57390;DHT22;43217;52.694;6.214;2022-12-08T02:28:00;3.20;99.90
57390;DHT22;43217;52.694;6.214;2022-12-08T02:30:46;3.30;99.90
57390;DHT22;43217;52.694;6.214;2022-12-08T02:33:23;3.30;99.90
57390;DHT22;43217;52.694;6.214;2022-12-08T02:35:58;3.30;99.90
57390;DHT22;43217;52.694;6.214;2022-12-08T02:38:50;3.30;99.90
57390;DHT22;43217;52.694;6.214;2022-12-08T02:41:48;3.30;99.90
57390;DHT22;43217;52.694;6.214;2022-12-08T02:44:21;3.40;99.90
57390;DHT22;43217;52.694;6.214;2022-12-08T02:46:56;3.40;99.90
57390;DHT22;43217;52.694;6.214;2022-12-08T02:49:31;3.40;99.90
57390;DHT22;43217;52.694;6.214;2022-12-08T02:54:40;3.50;99.90
57390;DHT22;43217;52.694;6.214;2022-12-08T03:00:15;3.50;99.90
57390;DHT22;43217;52.694;6.214;2022-12-08T03:05:33;3.50;99.90
57390;DHT22;43217;52.694;6.214;2022-12-08T03:08:22;3.50;99.90
57390;DHT22;43217;52.694;6.214;2022-12-08T03:11:04;3.50;99.90
57390;DHT22;43217;52.694;6.214;2022-12-08T03:13:43;3.50;99.90
57390;DHT22;43217;52.694;6.214;2022-12-08T03:16:12;3.40;99.90
57390;DHT22;43217;52.694;6.214;2022-12-08T03:18:42;3.40;99.90
57390;DHT22;43217;52.694;6.214;2022-12-08T03:21:12;3.40;99.90
57390;DHT22;43217;52.694;6.214;2022-12-08T03:23:39;3.40;99.90
57390;DHT22;43217;52.694;6.214;2022-12-08T03:26:33;3.30;99.90
57390;DHT22;43217;52.694;6.214;2022-12-08T03:29:01;3.30;99.90
57390;DHT22;43217;52.694;6.214;2022-12-08T03:31:29;3.40;99.90
57390;DHT22;43217;52.694;6.214;2022-12-08T03:33:57;3.30;99.90
57390;DHT22;43217;52.694;6.214;2022-12-08T03:36:24;3.30;99.90
57390;DHT22;43217;52.694;6.214;2022-12-08T03:38:52;3.30;99.90
57390;DHT22;43217;52.694;6.214;2022-12-08T03:41:19;3.30;99.90
57390;DHT22;43217;52.694;6.214;2022-12-08T03:43:50;3.40;99.90
57390;DHT22;43217;52.694;6.214;2022-12-08T03:46:17;3.30;99.90
57390;DHT22;43217;52.694;6.214;2022-12-08T03:48:44;3.30;99.90
57390;DHT22;43217;52.694;6.214;2022-12-08T03:51:09;3.40;99.90
57390;DHT22;43217;52.694;6.214;2022-12-08T03:53:35;3.40;99.90
57390;DHT22;43217;52.694;6.214;2022-12-08T03:56:24;3.40;99.90
57390;DHT22;43217;52.694;6.214;2022-12-08T03:58:51;3.40;99.90
57390;DHT22;43217;52.694;6.214;2022-12-08T04:01:17;3.40;99.90
57390;DHT22;43217;52.694;6.214;2022-12-08T04:03:43;3.40;99.90
57390;DHT22;43217;52.694;6.214;2022-12-08T04:06:08;3.40;99.90
57390;DHT22;43217;52.694;6.214;2022-12-08T04:08:34;3.40;99.90
57390;DHT22;43217;52.694;6.214;2022-12-08T04:11:00;3.40;99.90
57390;DHT22;43217;52.694;6.214;2022-12-08T04:13:26;3.40;99.90
57390;DHT22;43217;52.694;6.214;2022-12-08T04:15:51;3.40;99.90
57390;DHT22;43217;52.694;6.214;2022-12-08T04:18:17;3.40;99.90
57390;DHT22;43217;52.694;6.214;2022-12-08T04:20:43;3.40;99.90
57390;DHT22;43217;52.694;6.214;2022-12-08T04:23:10;3.40;99.90
57390;DHT22;43217;52.694;6.214;2022-12-08T04:25:36;3.40;99.90
57390;DHT22;43217;52.694;6.214;2022-12-08T04:28:03;3.40;99.90
57390;DHT22;43217;52.694;6.214;2022-12-08T04:30:29;3.40;99.90
57390;DHT22;43217;52.694;6.214;2022-12-08T04:32:55;3.40;99.90
57390;DHT22;43217;52.694;6.214;2022-12-08T04:35:21;3.40;99.90
57390;DHT22;43217;52.694;6.214;2022-12-08T04:37:46;3.30;99.90
57390;DHT22;43217;52.694;6.214;2022-12-08T04:40:12;3.30;99.90
57390;DHT22;43217;52.694;6.214;2022-12-08T04:42:38;3.30;99.90
57390;DHT22;43217;52.694;6.214;2022-12-08T04:45:05;3.30;99.90
57390;DHT22;43217;52.694;6.214;2022-12-08T04:47:31;3.30;99.90
57390;DHT22;43217;52.694;6.214;2022-12-08T04:49:57;3.30;99.90
57390;DHT22;43217;52.694;6.214;2022-12-08T04:52:23;3.30;99.90
57390;DHT22;43217;52.694;6.214;2022-12-08T04:54:49;3.30;99.90
57390;DHT22;43217;52.694;6.214;2022-12-08T04:57:14;3.30;99.90
57390;DHT22;43217;52.694;6.214;2022-12-08T04:59:40;3.30;99.90
57390;DHT22;43217;52.694;6.214;2022-12-08T05:02:05;3.30;99.90
57390;DHT22;43217;52.694;6.214;2022-12-08T05:04:31;3.30;99.90
57390;DHT22;43217;52.694;6.214;2022-12-08T05:06:57;3.30;99.90
57390;DHT22;43217;52.694;6.214;2022-12-08T05:09:23;3.30;99.90
57390;DHT22;43217;52.694;6.214;2022-12-08T05:11:49;3.30;99.90
57390;DHT22;43217;52.694;6.214;2022-12-08T05:14:16;3.30;99.90
57390;DHT22;43217;52.694;6.214;2022-12-08T05:16:42;3.30;99.90
57390;DHT22;43217;52.694;6.214;2022-12-08T05:19:08;3.30;99.90
57390;DHT22;43217;52.694;6.214;2022-12-08T05:21:34;3.30;99.90
57390;DHT22;43217;52.694;6.214;2022-12-08T05:23:59;3.30;99.90
57390;DHT22;43217;52.694;6.214;2022-12-08T05:26:25;3.30;99.90
57390;DHT22;43217;52.694;6.214;2022-12-08T05:28:51;3.30;99.90
57390;DHT22;43217;52.694;6.214;2022-12-08T05:31:16;3.30;99.90
57390;DHT22;43217;52.694;6.214;2022-12-08T05:33:43;3.30;99.90
57390;DHT22;43217;52.694;6.214;2022-12-08T05:36:11;3.30;99.90
57390;DHT22;43217;52.694;6.214;2022-12-08T05:38:38;3.20;99.90
57390;DHT22;43217;52.694;6.214;2022-12-08T05:41:09;3.20;99.90
57390;DHT22;43217;52.694;6.214;2022-12-08T05:43:34;3.20;99.90
57390;DHT22;43217;52.694;6.214;2022-12-08T05:46:00;3.20;99.90
57390;DHT22;43217;52.694;6.214;2022-12-08T05:48:26;3.20;99.90
57390;DHT22;43217;52.694;6.214;2022-12-08T05:50:52;3.20;99.90
57390;DHT22;43217;52.694;6.214;2022-12-08T05:53:19;3.20;99.90
57390;DHT22;43217;52.694;6.214;2022-12-08T05:55:45;3.20;99.90
57390;DHT22;43217;52.694;6.214;2022-12-08T05:58:16;3.20;99.90
57390;DHT22;43217;52.694;6.214;2022-12-08T06:00:43;3.20;99.90
57390;DHT22;43217;52.694;6.214;2022-12-08T06:03:11;3.20;99.90
57390;DHT22;43217;52.694;6.214;2022-12-08T06:05:37;3.20;99.90
57390;DHT22;43217;52.694;6.214;2022-12-08T06:08:03;3.20;99.90
57390;DHT22;43217;52.694;6.214;2022-12-08T06:10:29;3.20;99.90
57390;DHT22;43217;52.694;6.214;2022-12-08T06:12:57;3.10;99.90
57390;DHT22;43217;52.694;6.214;2022-12-08T06:15:22;3.10;99.90
57390;DHT22;43217;52.694;6.214;2022-12-08T06:17:48;3.10;99.90
57390;DHT22;43217;52.694;6.214;2022-12-08T06:20:14;3.10;99.90
57390;DHT22;43217;52.694;6.214;2022-12-08T06:22:39;3.10;99.90
57390;DHT22;43217;52.694;6.214;2022-12-08T06:25:05;3.10;99.90
57390;DHT22;43217;52.694;6.214;2022-12-08T06:27:32;3.10;99.90
57390;DHT22;43217;52.694;6.214;2022-12-08T06:29:58;3.10;99.90
57390;DHT22;43217;52.694;6.214;2022-12-08T06:32:24;3.10;99.90
57390;DHT22;43217;52.694;6.214;2022-12-08T06:34:49;3.10;99.90
57390;DHT22;43217;52.694;6.214;2022-12-08T06:37:15;3.10;99.90
57390;DHT22;43217;52.694;6.214;2022-12-08T06:39:41;3.10;99.90
57390;DHT22;43217;52.694;6.214;2022-12-08T06:42:06;3.10;99.90
57390;DHT22;43217;52.694;6.214;2022-12-08T06:44:51;3.10;99.90
57390;DHT22;43217;52.694;6.214;2022-12-08T06:47:16;3.10;99.90
57390;DHT22;43217;52.694;6.214;2022-12-08T06:49:42;3.20;99.90
57390;DHT22;43217;52.694;6.214;2022-12-08T06:52:07;3.10;99.90
57390;DHT22;43217;52.694;6.214;2022-12-08T06:54:33;3.10;99.90
57390;DHT22;43217;52.694;6.214;2022-12-08T06:56:59;3.20;99.90
57390;DHT22;43217;52.694;6.214;2022-12-08T06:59:24;3.10;99.90
57390;DHT22;43217;52.694;6.214;2022-12-08T07:01:51;3.20;99.90
57390;DHT22;43217;52.694;6.214;2022-12-08T07:04:17;3.20;99.90
57390;DHT22;43217;52.694;6.214;2022-12-08T07:06:42;3.20;99.90
57390;DHT22;43217;52.694;6.214;2022-12-08T07:09:08;3.20;99.90
57390;DHT22;43217;52.694;6.214;2022-12-08T07:11:34;3.20;99.90
57390;DHT22;43217;52.694;6.214;2022-12-08T07:13:59;3.20;99.90
57390;DHT22;43217;52.694;6.214;2022-12-08T07:16:25;3.20;99.90
57390;DHT22;43217;52.694;6.214;2022-12-08T07:18:51;3.20;99.90
57390;DHT22;43217;52.694;6.214;2022-12-08T07:21:16;3.20;99.90
57390;DHT22;43217;52.694;6.214;2022-12-08T07:23:45;3.20;99.90
57390;DHT22;43217;52.694;6.214;2022-12-08T07:26:11;3.30;99.90
57390;DHT22;43217;52.694;6.214;2022-12-08T07:28:39;3.20;99.90
57390;DHT22;43217;52.694;6.214;2022-12-08T07:31:06;3.20;99.90
57390;DHT22;43217;52.694;6.214;2022-12-08T07:33:33;3.20;99.90
57390;DHT22;43217;52.694;6.214;2022-12-08T07:36:03;3.20;99.90
57390;DHT22;43217;52.694;6.214;2022-12-08T07:38:30;3.20;99.90
57390;DHT22;43217;52.694;6.214;2022-12-08T07:40:55;3.20;99.90
57390;DHT22;43217;52.694;6.214;2022-12-08T07:43:22;3.20;99.90
57390;DHT22;43217;52.694;6.214;2022-12-08T07:45:48;3.20;99.90
57390;DHT22;43217;52.694;6.214;2022-12-08T07:48:14;3.20;99.90
57390;DHT22;43217;52.694;6.214;2022-12-08T07:50:41;3.20;99.90
57390;DHT22;43217;52.694;6.214;2022-12-08T07:53:07;3.20;99.90
57390;DHT22;43217;52.694;6.214;2022-12-08T07:55:33;3.20;99.90
57390;DHT22;43217;52.694;6.214;2022-12-08T07:57:58;3.20;99.90
57390;DHT22;43217;52.694;6.214;2022-12-08T08:00:24;3.20;99.90
57390;DHT22;43217;52.694;6.214;2022-12-08T08:02:53;3.10;99.90
57390;DHT22;43217;52.694;6.214;2022-12-08T08:05:18;3.10;99.90
57390;DHT22;43217;52.694;6.214;2022-12-08T08:07:44;3.10;99.90
57390;DHT22;43217;52.694;6.214;2022-12-08T08:10:12;3.10;99.90
57390;DHT22;43217;52.694;6.214;2022-12-08T08:12:38;3.10;99.90
57390;DHT22;43217;52.694;6.214;2022-12-08T08:15:06;3.10;99.90
57390;DHT22;43217;52.694;6.214;2022-12-08T08:17:33;3.10;99.90
57390;DHT22;43217;52.694;6.214;2022-12-08T08:19:59;3.10;99.90
57390;DHT22;43217;52.694;6.214;2022-12-08T08:22:25;3.20;99.90
57390;DHT22;43217;52.694;6.214;2022-12-08T08:24:51;3.10;99.90
57390;DHT22;43217;52.694;6.214;2022-12-08T08:27:17;3.10;99.90
57390;DHT22;43217;52.694;6.214;2022-12-08T08:29:42;3.10;99.90
57390;DHT22;43217;52.694;6.214;2022-12-08T08:32:08;3.10;99.90
57390;DHT22;43217;52.694;6.214;2022-12-08T08:34:34;3.20;99.90
57390;DHT22;43217;52.694;6.214;2022-12-08T08:36:59;3.20;99.90
57390;DHT22;43217;52.694;6.214;2022-12-08T08:39:25;3.20;99.90
57390;DHT22;43217;52.694;6.214;2022-12-08T08:41:51;3.20;99.90
57390;DHT22;43217;52.694;6.214;2022-12-08T08:44:16;3.20;99.90
57390;DHT22;43217;52.694;6.214;2022-12-08T08:46:42;3.20;99.90
57390;DHT22;43217;52.694;6.214;2022-12-08T08:49:07;3.20;99.90
57390;DHT22;43217;52.694;6.214;2022-12-08T08:51:33;3.20;99.90
57390;DHT22;43217;52.694;6.214;2022-12-08T08:53:59;3.30;99.90
57390;DHT22;43217;52.694;6.214;2022-12-08T08:56:27;3.30;99.90
57390;DHT22;43217;52.694;6.214;2022-12-08T08:58:55;3.30;99.90
57390;DHT22;43217;52.694;6.214;2022-12-08T09:01:23;3.30;99.90
57390;DHT22;43217;52.694;6.214;2022-12-08T09:03:50;3.30;99.90
57390;DHT22;43217;52.694;6.214;2022-12-08T09:06:16;3.30;99.90
57390;DHT22;43217;52.694;6.214;2022-12-08T09:08:42;3.40;99.90
57390;DHT22;43217;52.694;6.214;2022-12-08T09:11:08;3.40;99.90
57390;DHT22;43217;52.694;6.214;2022-12-08T09:13:34;3.40;99.90
57390;DHT22;43217;52.694;6.214;2022-12-08T09:16:02;3.40;99.90
57390;DHT22;43217;52.694;6.214;2022-12-08T09:18:28;3.40;99.90
57390;DHT22;43217;52.694;6.214;2022-12-08T09:20:54;3.40;99.90
57390;DHT22;43217;52.694;6.214;2022-12-08T09:23:20;3.50;99.90
57390;DHT22;43217;52.694;6.214;2022-12-08T09:25:45;3.50;99.90
57390;DHT22;43217;52.694;6.214;2022-12-08T09:28:12;3.50;99.90
57390;DHT22;43217;52.694;6.214;2022-12-08T09:30:38;3.50;99.90
57390;DHT22;43217;52.694;6.214;2022-12-08T09:33:04;3.50;99.90
57390;DHT22;43217;52.694;6.214;2022-12-08T09:35:29;3.50;99.90
57390;DHT22;43217;52.694;6.214;2022-12-08T09:37:55;3.60;99.90
57390;DHT22;43217;52.694;6.214;2022-12-08T09:40:22;3.60;99.90
57390;DHT22;43217;52.694;6.214;2022-12-08T09:45:53;3.60;99.90
57390;DHT22;43217;52.694;6.214;2022-12-08T09:48:25;3.60;99.90
57390;DHT22;43217;52.694;6.214;2022-12-08T09:50:55;3.70;99.90
57390;DHT22;43217;52.694;6.214;2022-12-08T09:53:22;3.70;99.90
57390;DHT22;43217;52.694;6.214;2022-12-08T09:55:49;3.60;99.90
57390;DHT22;43217;52.694;6.214;2022-12-08T10:01:00;3.70;99.90
57390;DHT22;43217;52.694;6.214;2022-12-08T10:03:27;3.70;99.90
57390;DHT22;43217;52.694;6.214;2022-12-08T10:08:45;3.80;99.90
57390;DHT22;43217;52.694;6.214;2022-12-08T10:11:43;3.80;99.90
57390;DHT22;43217;52.694;6.214;2022-12-08T10:14:39;3.80;99.90
57390;DHT22;43217;52.694;6.214;2022-12-08T10:17:15;3.80;99.90
57390;DHT22;43217;52.694;6.214;2022-12-08T10:19:43;3.80;99.90
57390;DHT22;43217;52.694;6.214;2022-12-08T10:22:25;3.70;99.90
57390;DHT22;43217;52.694;6.214;2022-12-08T10:25:08;3.80;99.90
57390;DHT22;43217;52.694;6.214;2022-12-08T10:27:35;3.80;99.90
57390;DHT22;43217;52.694;6.214;2022-12-08T10:30:05;3.80;99.90
57390;DHT22;43217;52.694;6.214;2022-12-08T10:32:34;3.80;99.90
57390;DHT22;43217;52.694;6.214;2022-12-08T10:35:14;3.80;99.90
57390;DHT22;43217;52.694;6.214;2022-12-08T10:37:41;3.90;99.90
57390;DHT22;43217;52.694;6.214;2022-12-08T10:40:18;3.90;99.90
57390;DHT22;43217;52.694;6.214;2022-12-08T10:42:47;3.90;99.90
57390;DHT22;43217;52.694;6.214;2022-12-08T10:45:24;3.90;99.90
57390;DHT22;43217;52.694;6.214;2022-12-08T10:48:45;3.90;99.90
57390;DHT22;43217;52.694;6.214;2022-12-08T10:50:58;4.00;99.90
57390;DHT22;43217;52.694;6.214;2022-12-08T10:53:31;4.00;99.90
57390;DHT22;43217;52.694;6.214;2022-12-08T10:58:31;4.00;99.90
57390;DHT22;43217;52.694;6.214;2022-12-08T11:01:11;4.00;99.90
57390;DHT22;43217;52.694;6.214;2022-12-08T11:03:53;4.00;99.90
57390;DHT22;43217;52.694;6.214;2022-12-08T11:06:24;4.00;99.90
57390;DHT22;43217;52.694;6.214;2022-12-08T11:08:55;4.00;99.90
57390;DHT22;43217;52.694;6.214;2022-12-08T11:11:22;4.00;99.90
57390;DHT22;43217;52.694;6.214;2022-12-08T11:14:06;4.00;99.90
57390;DHT22;43217;52.694;6.214;2022-12-08T11:16:32;4.00;99.90
57390;DHT22;43217;52.694;6.214;2022-12-08T11:18:57;4.00;99.90
57390;DHT22;43217;52.694;6.214;2022-12-08T11:21:36;4.00;99.90
57390;DHT22;43217;52.694;6.214;2022-12-08T11:26:39;4.10;99.90
57390;DHT22;43217;52.694;6.214;2022-12-08T11:29:10;4.10;99.90
57390;DHT22;43217;52.694;6.214;2022-12-08T11:31:47;4.10;99.90
57390;DHT22;43217;52.694;6.214;2022-12-08T11:34:30;4.20;99.90
57390;DHT22;43217;52.694;6.214;2022-12-08T11:36:56;4.20;99.90
57390;DHT22;43217;52.694;6.214;2022-12-08T11:39:25;4.30;99.90
57390;DHT22;43217;52.694;6.214;2022-12-08T11:41:52;4.30;99.90
57390;DHT22;43217;52.694;6.214;2022-12-08T11:44:28;4.30;99.90
57390;DHT22;43217;52.694;6.214;2022-12-08T11:47:01;4.30;99.90
57390;DHT22;43217;52.694;6.214;2022-12-08T11:49:37;4.30;99.90
57390;DHT22;43217;52.694;6.214;2022-12-08T11:52:24;4.30;99.90
57390;DHT22;43217;52.694;6.214;2022-12-08T11:55:26;4.40;99.90
57390;DHT22;43217;52.694;6.214;2022-12-08T11:57:57;4.50;99.90
57390;DHT22;43217;52.694;6.214;2022-12-08T12:00:25;4.60;99.90
57390;DHT22;43217;52.694;6.214;2022-12-08T12:02:58;4.70;99.90
57390;DHT22;43217;52.694;6.214;2022-12-08T12:17:01;5.00;99.90
57390;DHT22;43217;52.694;6.214;2022-12-08T12:19:31;5.00;99.90
57390;DHT22;43217;52.694;6.214;2022-12-08T12:22:00;5.10;99.90
57390;DHT22;43217;52.694;6.214;2022-12-08T12:24:32;5.10;99.90
57390;DHT22;43217;52.694;6.214;2022-12-08T12:29:46;5.00;99.90
57390;DHT22;43217;52.694;6.214;2022-12-08T12:32:13;4.90;99.90
57390;DHT22;43217;52.694;6.214;2022-12-08T12:37:16;4.90;99.90
57390;DHT22;43217;52.694;6.214;2022-12-08T12:42:38;4.90;99.90
57390;DHT22;43217;52.694;6.214;2022-12-08T12:47:51;4.80;99.90
57390;DHT22;43217;52.694;6.214;2022-12-08T12:50:50;4.80;99.90
57390;DHT22;43217;52.694;6.214;2022-12-08T13:03:50;4.90;99.90
57390;DHT22;43217;52.694;6.214;2022-12-08T13:06:53;4.90;99.90
57390;DHT22;43217;52.694;6.214;2022-12-08T13:09:36;4.90;99.90
57390;DHT22;43217;52.694;6.214;2022-12-08T13:12:19;4.80;99.90
57390;DHT22;43217;52.694;6.214;2022-12-08T13:14:49;4.70;99.90
57390;DHT22;43217;52.694;6.214;2022-12-08T13:17:27;4.70;99.90
57390;DHT22;43217;52.694;6.214;2022-12-08T13:19:56;4.60;99.90
57390;DHT22;43217;52.694;6.214;2022-12-08T13:25:47;4.60;99.90
57390;DHT22;43217;52.694;6.214;2022-12-08T13:28:21;4.50;99.90
57390;DHT22;43217;52.694;6.214;2022-12-08T13:30:49;4.50;99.90
57390;DHT22;43217;52.694;6.214;2022-12-08T13:33:22;4.50;99.90
57390;DHT22;43217;52.694;6.214;2022-12-08T13:35:55;4.40;99.90
57390;DHT22;43217;52.694;6.214;2022-12-08T13:38:27;4.40;99.90
57390;DHT22;43217;52.694;6.214;2022-12-08T13:40:56;4.40;99.90
57390;DHT22;43217;52.694;6.214;2022-12-08T13:43:33;4.40;99.90
57390;DHT22;43217;52.694;6.214;2022-12-08T13:46:00;4.40;99.90
57390;DHT22;43217;52.694;6.214;2022-12-08T13:51:17;4.30;99.90
57390;DHT22;43217;52.694;6.214;2022-12-08T13:56:43;4.20;99.90
57390;DHT22;43217;52.694;6.214;2022-12-08T14:01:45;4.10;99.90
57390;DHT22;43217;52.694;6.214;2022-12-08T14:04:15;4.10;99.90
57390;DHT22;43217;52.694;6.214;2022-12-08T14:06:50;4.10;99.90
57390;DHT22;43217;52.694;6.214;2022-12-08T14:09:22;4.10;99.90
57390;DHT22;43217;52.694;6.214;2022-12-08T14:12:17;4.10;99.90
57390;DHT22;43217;52.694;6.214;2022-12-08T14:14:47;4.10;99.90
57390;DHT22;43217;52.694;6.214;2022-12-08T14:17:17;4.10;99.90
57390;DHT22;43217;52.694;6.214;2022-12-08T14:20:17;4.00;99.90
57390;DHT22;43217;52.694;6.214;2022-12-08T14:22:36;4.00;99.90
57390;DHT22;43217;52.694;6.214;2022-12-08T14:25:03;4.00;99.90
57390;DHT22;43217;52.694;6.214;2022-12-08T14:27:36;4.00;99.90
57390;DHT22;43217;52.694;6.214;2022-12-08T14:32:46;4.00;99.90
57390;DHT22;43217;52.694;6.214;2022-12-08T14:35:23;4.00;99.90
57390;DHT22;43217;52.694;6.214;2022-12-08T14:37:51;4.00;99.90
57390;DHT22;43217;52.694;6.214;2022-12-08T14:42:52;4.00;99.90
57390;DHT22;43217;52.694;6.214;2022-12-08T14:45:19;4.00;99.90
57390;DHT22;43217;52.694;6.214;2022-12-08T14:47:45;4.00;99.90
57390;DHT22;43217;52.694;6.214;2022-12-08T14:50:37;4.00;99.90
57390;DHT22;43217;52.694;6.214;2022-12-08T14:53:13;4.00;99.90
57390;DHT22;43217;52.694;6.214;2022-12-08T14:55:42;4.00;99.90
57390;DHT22;43217;52.694;6.214;2022-12-08T14:58:27;4.00;99.90
57390;DHT22;43217;52.694;6.214;2022-12-08T15:00:55;4.00;99.90
57390;DHT22;43217;52.694;6.214;2022-12-08T15:03:24;4.00;99.90
57390;DHT22;43217;52.694;6.214;2022-12-08T15:05:55;4.00;99.90
57390;DHT22;43217;52.694;6.214;2022-12-08T15:08:22;4.00;99.90
57390;DHT22;43217;52.694;6.214;2022-12-08T15:11:11;4.00;99.90
57390;DHT22;43217;52.694;6.214;2022-12-08T15:13:43;4.00;99.90
57390;DHT22;43217;52.694;6.214;2022-12-08T15:19:03;4.00;99.90
57390;DHT22;43217;52.694;6.214;2022-12-08T15:21:33;4.00;99.90
57390;DHT22;43217;52.694;6.214;2022-12-08T15:24:01;4.00;99.90
57390;DHT22;43217;52.694;6.214;2022-12-08T15:26:27;4.00;99.90
57390;DHT22;43217;52.694;6.214;2022-12-08T15:28:53;4.00;99.90
57390;DHT22;43217;52.694;6.214;2022-12-08T15:31:19;4.00;99.90
57390;DHT22;43217;52.694;6.214;2022-12-08T15:33:45;4.00;99.90
57390;DHT22;43217;52.694;6.214;2022-12-08T15:36:11;4.00;99.90
57390;DHT22;43217;52.694;6.214;2022-12-08T15:38:37;4.00;99.90
57390;DHT22;43217;52.694;6.214;2022-12-08T15:41:02;4.00;99.90
57390;DHT22;43217;52.694;6.214;2022-12-08T15:43:30;4.00;99.90
57390;DHT22;43217;52.694;6.214;2022-12-08T15:45:55;3.90;99.90
57390;DHT22;43217;52.694;6.214;2022-12-08T15:48:24;3.90;99.90
57390;DHT22;43217;52.694;6.214;2022-12-08T15:50:51;3.90;99.90
57390;DHT22;43217;52.694;6.214;2022-12-08T15:53:17;3.90;99.90
57390;DHT22;43217;52.694;6.214;2022-12-08T15:55:43;3.90;99.90
57390;DHT22;43217;52.694;6.214;2022-12-08T15:58:23;3.90;99.90
57390;DHT22;43217;52.694;6.214;2022-12-08T16:00:51;3.90;99.90
57390;DHT22;43217;52.694;6.214;2022-12-08T16:03:27;3.90;99.90
57390;DHT22;43217;52.694;6.214;2022-12-08T16:05:54;3.90;99.90
57390;DHT22;43217;52.694;6.214;2022-12-08T16:08:21;3.90;99.90
57390;DHT22;43217;52.694;6.214;2022-12-08T16:10:47;3.90;99.90
57390;DHT22;43217;52.694;6.214;2022-12-08T16:13:20;3.90;99.90
57390;DHT22;43217;52.694;6.214;2022-12-08T16:16:05;3.80;99.90
57390;DHT22;43217;52.694;6.214;2022-12-08T16:18:34;3.80;99.90
57390;DHT22;43217;52.694;6.214;2022-12-08T16:21:01;3.80;99.90
57390;DHT22;43217;52.694;6.214;2022-12-08T16:23:27;3.90;99.90
57390;DHT22;43217;52.694;6.214;2022-12-08T16:25:53;3.90;99.90
57390;DHT22;43217;52.694;6.214;2022-12-08T16:28:19;3.90;99.90
57390;DHT22;43217;52.694;6.214;2022-12-08T16:30:44;3.80;99.90
57390;DHT22;43217;52.694;6.214;2022-12-08T16:33:13;3.70;99.90
57390;DHT22;43217;52.694;6.214;2022-12-08T16:35:40;3.60;99.90
57390;DHT22;43217;52.694;6.214;2022-12-08T16:38:06;3.60;99.90
57390;DHT22;43217;52.694;6.214;2022-12-08T16:40:32;3.50;99.90
57390;DHT22;43217;52.694;6.214;2022-12-08T16:43:18;3.50;99.90
57390;DHT22;43217;52.694;6.214;2022-12-08T16:45:43;3.40;99.90
57390;DHT22;43217;52.694;6.214;2022-12-08T16:48:12;3.50;99.90
57390;DHT22;43217;52.694;6.214;2022-12-08T16:50:43;3.40;99.90
57390;DHT22;43217;52.694;6.214;2022-12-08T16:53:10;3.40;99.90
57390;DHT22;43217;52.694;6.214;2022-12-08T16:55:37;3.40;99.90
57390;DHT22;43217;52.694;6.214;2022-12-08T16:58:04;3.40;99.90
57390;DHT22;43217;52.694;6.214;2022-12-08T17:00:32;3.40;99.90
57390;DHT22;43217;52.694;6.214;2022-12-08T17:03:02;3.40;99.90
57390;DHT22;43217;52.694;6.214;2022-12-08T17:05:28;3.40;99.90
57390;DHT22;43217;52.694;6.214;2022-12-08T17:07:54;3.40;99.90
57390;DHT22;43217;52.694;6.214;2022-12-08T17:10:22;3.40;99.90
57390;DHT22;43217;52.694;6.214;2022-12-08T17:12:48;3.40;99.90
57390;DHT22;43217;52.694;6.214;2022-12-08T17:15:17;3.40;99.90
57390;DHT22;43217;52.694;6.214;2022-12-08T17:17:43;3.50;99.90
57390;DHT22;43217;52.694;6.214;2022-12-08T17:20:13;3.50;99.90
57390;DHT22;43217;52.694;6.214;2022-12-08T17:22:39;3.50;99.90